sensor_id;sensor_type;location;lat;lon;timestamp;temperature;humidity
29813;DHT22;16707;48.106;11.548;2023-06-01T00:00:37;14.20;99.90
29813;DHT22;16707;48.106;11.548;2023-06-01T00:03:16;14.20;99.90
29813;DHT22;16707;48.106;11.548;2023-06-01T00:05:46;14.20;99.90
29813;DHT22;16707;48.106;11.548;2023-06-01T00:08:17;14.10;99.90
29813;DHT22;16707;48.106;11.548;2023-06-01T00:10:47;14.00;99.90
29813;DHT22;16707;48.106;11.548;2023-06-01T00:13:22;14.00;99.90
29813;DHT22;16707;48.106;11.548;2023-06-01T00:15:55;13.90;99.90
29813;DHT22;16707;48.106;11.548;2023-06-01T00:18:36;13.90;99.90
29813;DHT22;16707;48.106;11.548;2023-06-01T00:21:14;13.90;99.90
29813;DHT22;16707;48.106;11.548;2023-06-01T00:23:50;13.90;99.90
29813;DHT22;16707;48.106;11.548;2023-06-01T00:26:19;13.80;99.90
29813;DHT22;16707;48.106;11.548;2023-06-01T00:28:46;13.70;99.90
29813;DHT22;16707;48.106;11.548;2023-06-01T00:31:22;13.70;99.90
29813;DHT22;16707;48.106;11.548;2023-06-01T00:33:56;13.60;99.90
29813;DHT22;16707;48.106;11.548;2023-06-01T00:36:28;13.60;99.90
29813;DHT22;16707;48.106;11.548;2023-06-01T00:39:02;13.40;99.90
29813;DHT22;16707;48.106;11.548;2023-06-01T00:41:35;13.20;99.90
29813;DHT22;16707;48.106;11.548;2023-06-01T00:44:05;13.10;99.90
29813;DHT22;16707;48.106;11.548;2023-06-01T00:46:33;13.00;99.90
29813;DHT22;16707;48.106;11.548;2023-06-01T00:49:05;12.90;99.90
29813;DHT22;16707;48.106;11.548;2023-06-01T00:51:33;12.80;99.90
29813;DHT22;16707;48.106;11.548;2023-06-01T00:54:03;12.70;99.90
29813;DHT22;16707;48.106;11.548;2023-06-01T00:56:35;12.60;99.90
29813;DHT22;16707;48.106;11.548;2023-06-01T00:59:06;12.50;99.90
29813;DHT22;16707;48.106;11.548;2023-06-01T01:01:46;12.50;99.90
29813;DHT22;16707;48.106;11.548;2023-06-01T01:04:15;12.40;99.90
29813;DHT22;16707;48.106;11.548;2023-06-01T01:07:00;12.30;99.90
29813;DHT22;16707;48.106;11.548;2023-06-01T01:09:37;12.30;99.90
29813;DHT22;16707;48.106;11.548;2023-06-01T01:12:17;12.30;99.90
29813;DHT22;16707;48.106;11.548;2023-06-01T01:14:52;12.20;99.90
29813;DHT22;16707;48.106;11.548;2023-06-01T01:17:31;12.10;99.90
29813;DHT22;16707;48.106;11.548;2023-06-01T01:20:09;12.10;99.90
29813;DHT22;16707;48.106;11.548;2023-06-01T01:23:02;12.00;99.90
29813;DHT22;16707;48.106;11.548;2023-06-01T01:26:13;12.00;99.90
29813;DHT22;16707;48.106;11.548;2023-06-01T01:28:50;11.90;99.90
29813;DHT22;16707;48.106;11.548;2023-06-01T01:31:26;11.90;99.90
29813;DHT22;16707;48.106;11.548;2023-06-01T01:34:01;11.80;99.90
29813;DHT22;16707;48.106;11.548;2023-06-01T01:36:32;11.80;99.90
29813;DHT22;16707;48.106;11.548;2023-06-01T01:39:03;11.70;99.90
29813;DHT22;16707;48.106;11.548;2023-06-01T01:41:33;11.70;99.90
29813;DHT22;16707;48.106;11.548;2023-06-01T01:44:03;11.50;99.90
29813;DHT22;16707;48.106;11.548;2023-06-01T01:46:47;11.50;99.90
29813;DHT22;16707;48.106;11.548;2023-06-01T01:49:23;11.50;99.90
29813;DHT22;16707;48.106;11.548;2023-06-01T01:52:09;11.40;99.90
29813;DHT22;16707;48.106;11.548;2023-06-01T01:54:47;11.50;99.90
29813;DHT22;16707;48.106;11.548;2023-06-01T01:57:23;11.40;99.90
29813;DHT22;16707;48.106;11.548;2023-06-01T01:59:55;11.30;99.90
29813;DHT22;16707;48.106;11.548;2023-06-01T02:02:38;11.30;99.90
29813;DHT22;16707;48.106;11.548;2023-06-01T02:05:09;11.20;99.90
29813;DHT22;16707;48.106;11.548;2023-06-01T02:07:53;11.20;99.90
29813;DHT22;16707;48.106;11.548;2023-06-01T02:10:25;11.20;99.90
29813;DHT22;16707;48.106;11.548;2023-06-01T02:12:52;11.20;99.90
29813;DHT22;16707;48.106;11.548;2023-06-01T02:15:30;11.30;99.90
29813;DHT22;16707;48.106;11.548;2023-06-01T02:18:02;11.20;99.90
29813;DHT22;16707;48.106;11.548;2023-06-01T02:20:31;11.20;99.90
29813;DHT22;16707;48.106;11.548;2023-06-01T02:23:07;11.20;99.90
29813;DHT22;16707;48.106;11.548;2023-06-01T02:25:39;11.20;99.90
29813;DHT22;16707;48.106;11.548;2023-06-01T02:28:18;11.10;99.90
29813;DHT22;16707;48.106;11.548;2023-06-01T02:30:47;11.00;99.90
29813;DHT22;16707;48.106;11.548;2023-06-01T02:33:17;11.00;99.90
29813;DHT22;16707;48.106;11.548;2023-06-01T02:35:55;10.90;99.90
29813;DHT22;16707;48.106;11.548;2023-06-01T02:38:36;10.80;99.90
29813;DHT22;16707;48.106;11.548;2023-06-01T02:41:03;10.80;99.90
29813;DHT22;16707;48.106;11.548;2023-06-01T02:43:33;10.70;99.90
29813;DHT22;16707;48.106;11.548;2023-06-01T02:46:02;10.80;99.90
29813;DHT22;16707;48.106;11.548;2023-06-01T02:48:36;10.90;99.90
29813;DHT22;16707;48.106;11.548;2023-06-01T02:51:05;10.90;99.90
29813;DHT22;16707;48.106;11.548;2023-06-01T02:53:56;10.80;99.90
29813;DHT22;16707;48.106;11.548;2023-06-01T02:56:25;10.70;99.90
29813;DHT22;16707;48.106;11.548;2023-06-01T02:58:58;10.70;99.90
29813;DHT22;16707;48.106;11.548;2023-06-01T03:01:40;10.60;99.90
29813;DHT22;16707;48.106;11.548;2023-06-01T03:04:08;10.50;99.90
29813;DHT22;16707;48.106;11.548;2023-06-01T03:06:37;10.60;99.90
29813;DHT22;16707;48.106;11.548;2023-06-01T03:09:10;10.50;99.90
29813;DHT22;16707;48.106;11.548;2023-06-01T03:11:39;10.50;99.90
29813;DHT22;16707;48.106;11.548;2023-06-01T03:14:09;10.50;99.90
29813;DHT22;16707;48.106;11.548;2023-06-01T03:16:44;10.50;99.90
29813;DHT22;16707;48.106;11.548;2023-06-01T03:19:18;10.50;99.90
29813;DHT22;16707;48.106;11.548;2023-06-01T03:21:52;10.60;99.90
29813;DHT22;16707;48.106;11.548;2023-06-01T03:24:23;10.70;99.90
29813;DHT22;16707;48.106;11.548;2023-06-01T03:26:59;10.70;99.90
29813;DHT22;16707;48.106;11.548;2023-06-01T03:29:41;10.70;99.90
29813;DHT22;16707;48.106;11.548;2023-06-01T03:32:11;10.70;99.90
29813;DHT22;16707;48.106;11.548;2023-06-01T03:34:41;10.70;99.90
29813;DHT22;16707;48.106;11.548;2023-06-01T03:37:08;10.70;99.90
29813;DHT22;16707;48.106;11.548;2023-06-01T03:39:36;10.80;99.90
29813;DHT22;16707;48.106;11.548;2023-06-01T03:42:07;10.80;99.90
29813;DHT22;16707;48.106;11.548;2023-06-01T03:44:39;10.90;99.90
29813;DHT22;16707;48.106;11.548;2023-06-01T03:47:18;11.00;99.90
29813;DHT22;16707;48.106;11.548;2023-06-01T03:49:48;11.10;99.90
29813;DHT22;16707;48.106;11.548;2023-06-01T03:52:18;11.10;99.90
29813;DHT22;16707;48.106;11.548;2023-06-01T03:54:45;11.20;99.90
29813;DHT22;16707;48.106;11.548;2023-06-01T03:57:13;11.30;99.90
29813;DHT22;16707;48.106;11.548;2023-06-01T03:59:54;11.30;99.90
29813;DHT22;16707;48.106;11.548;2023-06-01T04:02:23;11.50;99.90
29813;DHT22;16707;48.106;11.548;2023-06-01T04:04:51;11.60;99.90
29813;DHT22;16707;48.106;11.548;2023-06-01T04:07:18;11.70;99.90
29813;DHT22;16707;48.106;11.548;2023-06-01T04:09:51;11.90;99.90
29813;DHT22;16707;48.106;11.548;2023-06-01T04:12:20;12.00;99.90
29813;DHT22;16707;48.106;11.548;2023-06-01T04:14:48;12.10;99.90
29813;DHT22;16707;48.106;11.548;2023-06-01T04:17:15;12.20;99.90
29813;DHT22;16707;48.106;11.548;2023-06-01T04:19:49;12.40;99.90
29813;DHT22;16707;48.106;11.548;2023-06-01T04:22:19;12.60;99.90
29813;DHT22;16707;48.106;11.548;2023-06-01T04:24:50;12.80;99.90
29813;DHT22;16707;48.106;11.548;2023-06-01T04:27:21;13.00;99.90
29813;DHT22;16707;48.106;11.548;2023-06-01T04:29:56;13.10;99.90
29813;DHT22;16707;48.106;11.548;2023-06-01T04:32:24;13.20;99.90
29813;DHT22;16707;48.106;11.548;2023-06-01T04:34:54;13.40;99.90
29813;DHT22;16707;48.106;11.548;2023-06-01T04:37:28;13.50;99.90
29813;DHT22;16707;48.106;11.548;2023-06-01T04:39:55;15.20;99.90
29813;DHT22;16707;48.106;11.548;2023-06-01T04:42:32;18.90;99.90
29813;DHT22;16707;48.106;11.548;2023-06-01T04:45:05;21.40;92.20
29813;DHT22;16707;48.106;11.548;2023-06-01T04:47:38;22.90;82.20
29813;DHT22;16707;48.106;11.548;2023-06-01T04:50:10;24.80;70.80
29813;DHT22;16707;48.106;11.548;2023-06-01T04:52:38;26.60;59.90
29813;DHT22;16707;48.106;11.548;2023-06-01T04:55:07;27.00;56.80
29813;DHT22;16707;48.106;11.548;2023-06-01T04:57:41;27.30;55.80
29813;DHT22;16707;48.106;11.548;2023-06-01T05:00:15;28.50;53.10
29813;DHT22;16707;48.106;11.548;2023-06-01T05:02:56;30.00;49.50
29813;DHT22;16707;48.106;11.548;2023-06-01T05:05:37;31.00;46.90
29813;DHT22;16707;48.106;11.548;2023-06-01T05:08:08;32.10;44.00
29813;DHT22;16707;48.106;11.548;2023-06-01T05:10:44;32.60;42.00
29813;DHT22;16707;48.106;11.548;2023-06-01T05:13:14;33.50;39.90
29813;DHT22;16707;48.106;11.548;2023-06-01T05:15:44;34.60;37.80
29813;DHT22;16707;48.106;11.548;2023-06-01T05:18:11;34.50;36.10
29813;DHT22;16707;48.106;11.548;2023-06-01T05:20:42;32.90;37.30
29813;DHT22;16707;48.106;11.548;2023-06-01T05:23:10;32.00;37.90
29813;DHT22;16707;48.106;11.548;2023-06-01T05:25:46;32.20;38.20
29813;DHT22;16707;48.106;11.548;2023-06-01T05:28:17;32.70;37.80
29813;DHT22;16707;48.106;11.548;2023-06-01T05:30:46;34.50;34.60
29813;DHT22;16707;48.106;11.548;2023-06-01T05:33:15;35.60;31.60
29813;DHT22;16707;48.106;11.548;2023-06-01T05:35:44;35.20;31.90
29813;DHT22;16707;48.106;11.548;2023-06-01T05:38:11;34.40;33.50
29813;DHT22;16707;48.106;11.548;2023-06-01T05:40:38;35.30;32.40
29813;DHT22;16707;48.106;11.548;2023-06-01T05:43:05;34.30;33.00
29813;DHT22;16707;48.106;11.548;2023-06-01T05:45:33;34.40;32.50
29813;DHT22;16707;48.106;11.548;2023-06-01T05:48:09;33.90;33.90
29813;DHT22;16707;48.106;11.548;2023-06-01T05:50:50;34.50;33.60
29813;DHT22;16707;48.106;11.548;2023-06-01T05:53:29;35.90;30.50
29813;DHT22;16707;48.106;11.548;2023-06-01T05:56:01;36.10;30.00
29813;DHT22;16707;48.106;11.548;2023-06-01T05:58:31;38.90;28.00
29813;DHT22;16707;48.106;11.548;2023-06-01T06:01:08;38.70;27.20
29813;DHT22;16707;48.106;11.548;2023-06-01T06:03:37;39.70;26.50
29813;DHT22;16707;48.106;11.548;2023-06-01T06:06:06;40.60;25.90
29813;DHT22;16707;48.106;11.548;2023-06-01T06:08:34;38.60;26.60
29813;DHT22;16707;48.106;11.548;2023-06-01T06:11:04;38.20;26.90
29813;DHT22;16707;48.106;11.548;2023-06-01T06:13:31;37.70;27.20
29813;DHT22;16707;48.106;11.548;2023-06-01T06:15:59;38.70;26.70
29813;DHT22;16707;48.106;11.548;2023-06-01T06:18:31;38.00;26.90
29813;DHT22;16707;48.106;11.548;2023-06-01T06:21:01;39.20;27.00
29813;DHT22;16707;48.106;11.548;2023-06-01T06:23:32;41.70;25.40
29813;DHT22;16707;48.106;11.548;2023-06-01T06:26:08;39.40;24.80
29813;DHT22;16707;48.106;11.548;2023-06-01T06:28:45;38.40;26.20
29813;DHT22;16707;48.106;11.548;2023-06-01T06:31:12;38.90;26.30
29813;DHT22;16707;48.106;11.548;2023-06-01T06:33:42;38.20;26.70
29813;DHT22;16707;48.106;11.548;2023-06-01T06:36:15;38.20;26.40
29813;DHT22;16707;48.106;11.548;2023-06-01T06:38:50;38.60;26.30
29813;DHT22;16707;48.106;11.548;2023-06-01T06:41:20;39.50;25.50
29813;DHT22;16707;48.106;11.548;2023-06-01T06:43:48;40.40;25.00
29813;DHT22;16707;48.106;11.548;2023-06-01T06:46:21;42.50;24.50
29813;DHT22;16707;48.106;11.548;2023-06-01T06:48:50;42.90;24.00
29813;DHT22;16707;48.106;11.548;2023-06-01T06:51:23;42.60;22.90
29813;DHT22;16707;48.106;11.548;2023-06-01T06:53:52;40.80;24.80
29813;DHT22;16707;48.106;11.548;2023-06-01T06:56:22;40.30;24.70
29813;DHT22;16707;48.106;11.548;2023-06-01T06:58:50;41.30;24.60
29813;DHT22;16707;48.106;11.548;2023-06-01T07:01:18;42.30;24.30
29813;DHT22;16707;48.106;11.548;2023-06-01T07:03:46;41.30;23.90
29813;DHT22;16707;48.106;11.548;2023-06-01T07:06:13;41.00;24.20
29813;DHT22;16707;48.106;11.548;2023-06-01T07:08:40;40.00;24.10
29813;DHT22;16707;48.106;11.548;2023-06-01T07:11:09;42.10;24.10
29813;DHT22;16707;48.106;11.548;2023-06-01T07:13:36;41.90;23.70
29813;DHT22;16707;48.106;11.548;2023-06-01T07:16:07;44.30;23.20
29813;DHT22;16707;48.106;11.548;2023-06-01T07:18:37;44.60;23.00
29813;DHT22;16707;48.106;11.548;2023-06-01T07:21:08;44.00;22.70
29813;DHT22;16707;48.106;11.548;2023-06-01T07:23:35;42.50;23.30
29813;DHT22;16707;48.106;11.548;2023-06-01T07:26:02;41.90;23.70
29813;DHT22;16707;48.106;11.548;2023-06-01T07:28:37;39.80;24.20
29813;DHT22;16707;48.106;11.548;2023-06-01T07:31:04;35.50;26.30
29813;DHT22;16707;48.106;11.548;2023-06-01T07:33:31;33.40;30.00
29813;DHT22;16707;48.106;11.548;2023-06-01T07:35:59;29.50;35.90
29813;DHT22;16707;48.106;11.548;2023-06-01T07:38:26;27.60;41.20
29813;DHT22;16707;48.106;11.548;2023-06-01T07:40:53;26.50;43.90
29813;DHT22;16707;48.106;11.548;2023-06-01T07:43:29;25.40;46.10
29813;DHT22;16707;48.106;11.548;2023-06-01T07:45:57;24.70;47.90
29813;DHT22;16707;48.106;11.548;2023-06-01T07:48:25;24.10;49.00
29813;DHT22;16707;48.106;11.548;2023-06-01T07:50:52;23.50;50.80
29813;DHT22;16707;48.106;11.548;2023-06-01T07:53:20;22.80;52.30
29813;DHT22;16707;48.106;11.548;2023-06-01T07:55:47;22.60;52.80
29813;DHT22;16707;48.106;11.548;2023-06-01T07:58:15;22.10;54.70
29813;DHT22;16707;48.106;11.548;2023-06-01T08:00:43;21.80;55.50
29813;DHT22;16707;48.106;11.548;2023-06-01T08:03:13;21.80;55.50
29813;DHT22;16707;48.106;11.548;2023-06-01T08:05:40;21.80;55.90
29813;DHT22;16707;48.106;11.548;2023-06-01T08:08:08;21.70;57.00
29813;DHT22;16707;48.106;11.548;2023-06-01T08:10:36;21.70;57.00
29813;DHT22;16707;48.106;11.548;2023-06-01T08:13:07;21.70;56.50
29813;DHT22;16707;48.106;11.548;2023-06-01T08:15:37;21.60;57.90
29813;DHT22;16707;48.106;11.548;2023-06-01T08:18:05;21.70;57.80
29813;DHT22;16707;48.106;11.548;2023-06-01T08:20:34;21.80;58.20
29813;DHT22;16707;48.106;11.548;2023-06-01T08:23:04;21.80;57.60
29813;DHT22;16707;48.106;11.548;2023-06-01T08:25:31;21.80;56.60
29813;DHT22;16707;48.106;11.548;2023-06-01T08:28:01;22.00;56.60
29813;DHT22;16707;48.106;11.548;2023-06-01T08:30:28;22.00;57.60
29813;DHT22;16707;48.106;11.548;2023-06-01T08:32:56;21.90;57.10
29813;DHT22;16707;48.106;11.548;2023-06-01T08:35:24;22.00;57.00
29813;DHT22;16707;48.106;11.548;2023-06-01T08:37:55;22.30;57.00
29813;DHT22;16707;48.106;11.548;2023-06-01T08:40:22;22.50;55.60
29813;DHT22;16707;48.106;11.548;2023-06-01T08:42:57;22.40;56.40
29813;DHT22;16707;48.106;11.548;2023-06-01T08:45:32;22.20;56.70
29813;DHT22;16707;48.106;11.548;2023-06-01T08:48:00;22.20;57.10
29813;DHT22;16707;48.106;11.548;2023-06-01T08:50:30;22.30;55.80
29813;DHT22;16707;48.106;11.548;2023-06-01T08:52:59;22.40;55.00
29813;DHT22;16707;48.106;11.548;2023-06-01T08:55:33;22.30;55.30
29813;DHT22;16707;48.106;11.548;2023-06-01T08:58:00;22.10;56.00
29813;DHT22;16707;48.106;11.548;2023-06-01T09:00:29;22.10;57.10
29813;DHT22;16707;48.106;11.548;2023-06-01T09:03:00;22.30;56.70
29813;DHT22;16707;48.106;11.548;2023-06-01T09:05:28;22.50;56.90
29813;DHT22;16707;48.106;11.548;2023-06-01T09:07:58;22.50;56.40
29813;DHT22;16707;48.106;11.548;2023-06-01T09:10:25;22.40;57.40
29813;DHT22;16707;48.106;11.548;2023-06-01T09:12:56;22.50;56.10
29813;DHT22;16707;48.106;11.548;2023-06-01T09:15:23;22.60;56.80
29813;DHT22;16707;48.106;11.548;2023-06-01T09:17:52;22.70;57.30
29813;DHT22;16707;48.106;11.548;2023-06-01T09:20:23;22.70;56.00
29813;DHT22;16707;48.106;11.548;2023-06-01T09:22:55;22.50;57.20
29813;DHT22;16707;48.106;11.548;2023-06-01T09:25:25;22.60;57.20
29813;DHT22;16707;48.106;11.548;2023-06-01T09:27:54;22.70;57.50
29813;DHT22;16707;48.106;11.548;2023-06-01T09:30:24;22.80;57.60
29813;DHT22;16707;48.106;11.548;2023-06-01T09:33:09;22.70;56.20
29813;DHT22;16707;48.106;11.548;2023-06-01T09:35:41;22.80;56.80
29813;DHT22;16707;48.106;11.548;2023-06-01T09:38:20;22.90;58.70
29813;DHT22;16707;48.106;11.548;2023-06-01T09:41:00;22.90;57.90
29813;DHT22;16707;48.106;11.548;2023-06-01T09:43:29;23.10;56.80
29813;DHT22;16707;48.106;11.548;2023-06-01T09:46:07;23.10;57.50
29813;DHT22;16707;48.106;11.548;2023-06-01T09:48:35;23.00;57.70
29813;DHT22;16707;48.106;11.548;2023-06-01T09:51:03;23.10;57.50
29813;DHT22;16707;48.106;11.548;2023-06-01T09:53:40;23.00;58.10
29813;DHT22;16707;48.106;11.548;2023-06-01T09:56:08;23.30;55.60
29813;DHT22;16707;48.106;11.548;2023-06-01T09:58:36;23.50;55.30
29813;DHT22;16707;48.106;11.548;2023-06-01T10:01:06;23.40;54.80
29813;DHT22;16707;48.106;11.548;2023-06-01T10:03:40;23.30;56.00
29813;DHT22;16707;48.106;11.548;2023-06-01T10:06:14;23.20;55.30
29813;DHT22;16707;48.106;11.548;2023-06-01T10:08:42;23.20;56.00
29813;DHT22;16707;48.106;11.548;2023-06-01T10:11:14;23.30;56.60
29813;DHT22;16707;48.106;11.548;2023-06-01T10:13:41;23.20;56.80
29813;DHT22;16707;48.106;11.548;2023-06-01T10:16:10;23.30;56.30
29813;DHT22;16707;48.106;11.548;2023-06-01T10:18:41;23.50;54.80
29813;DHT22;16707;48.106;11.548;2023-06-01T10:21:11;23.20;56.50
29813;DHT22;16707;48.106;11.548;2023-06-01T10:23:38;23.40;55.60
29813;DHT22;16707;48.106;11.548;2023-06-01T10:26:11;23.50;55.30
29813;DHT22;16707;48.106;11.548;2023-06-01T10:28:43;23.80;52.70
29813;DHT22;16707;48.106;11.548;2023-06-01T10:31:33;23.90;51.70
29813;DHT22;16707;48.106;11.548;2023-06-01T10:34:02;24.10;53.00
29813;DHT22;16707;48.106;11.548;2023-06-01T10:39:50;24.50;52.50
29813;DHT22;16707;48.106;11.548;2023-06-01T10:42:40;24.60;52.70
29813;DHT22;16707;48.106;11.548;2023-06-01T10:48:05;24.90;51.40
29813;DHT22;16707;48.106;11.548;2023-06-01T10:50:37;25.20;51.10
29813;DHT22;16707;48.106;11.548;2023-06-01T10:53:27;25.10;50.10
29813;DHT22;16707;48.106;11.548;2023-06-01T10:56:18;24.80;49.50
29813;DHT22;16707;48.106;11.548;2023-06-01T10:59:10;24.80;49.00
29813;DHT22;16707;48.106;11.548;2023-06-01T11:01:41;24.80;49.40
29813;DHT22;16707;48.106;11.548;2023-06-01T11:04:14;24.90;50.30
29813;DHT22;16707;48.106;11.548;2023-06-01T11:06:44;24.90;49.50
29813;DHT22;16707;48.106;11.548;2023-06-01T14:50:33;26.30;42.50
29813;DHT22;16707;48.106;11.548;2023-06-01T14:53:03;26.40;43.50
29813;DHT22;16707;48.106;11.548;2023-06-01T14:55:33;26.40;44.00
29813;DHT22;16707;48.106;11.548;2023-06-01T14:58:00;26.40;43.30
29813;DHT22;16707;48.106;11.548;2023-06-01T15:00:29;26.30;41.90
29813;DHT22;16707;48.106;11.548;2023-06-01T15:02:56;26.20;41.50
29813;DHT22;16707;48.106;11.548;2023-06-01T15:05:23;26.00;41.10
29813;DHT22;16707;48.106;11.548;2023-06-01T15:07:53;26.00;41.10
29813;DHT22;16707;48.106;11.548;2023-06-01T15:10:23;26.10;40.70
29813;DHT22;16707;48.106;11.548;2023-06-01T15:12:54;26.10;41.20
29813;DHT22;16707;48.106;11.548;2023-06-01T15:15:21;25.90;41.70
29813;DHT22;16707;48.106;11.548;2023-06-01T15:17:52;25.60;41.60
29813;DHT22;16707;48.106;11.548;2023-06-01T15:20:20;25.50;42.40
29813;DHT22;16707;48.106;11.548;2023-06-01T15:22:51;25.50;40.70
29813;DHT22;16707;48.106;11.548;2023-06-01T15:25:22;25.50;41.40
29813;DHT22;16707;48.106;11.548;2023-06-01T15:27:54;25.20;40.30
29813;DHT22;16707;48.106;11.548;2023-06-01T15:30:21;25.00;41.90
29813;DHT22;16707;48.106;11.548;2023-06-01T15:32:52;25.10;40.90
29813;DHT22;16707;48.106;11.548;2023-06-01T15:35:25;25.20;40.60
29813;DHT22;16707;48.106;11.548;2023-06-01T15:37:52;25.00;40.60
29813;DHT22;16707;48.106;11.548;2023-06-01T15:40:21;25.00;40.30
29813;DHT22;16707;48.106;11.548;2023-06-01T15:42:48;25.10;40.20
29813;DHT22;16707;48.106;11.548;2023-06-01T15:45:15;25.20;40.90
29813;DHT22;16707;48.106;11.548;2023-06-01T15:47:43;25.20;39.00
29813;DHT22;16707;48.106;11.548;2023-06-01T15:50:11;25.00;38.60
29813;DHT22;16707;48.106;11.548;2023-06-01T15:52:38;25.10;39.10
29813;DHT22;16707;48.106;11.548;2023-06-01T15:55:13;25.00;38.00
29813;DHT22;16707;48.106;11.548;2023-06-01T15:57:49;25.00;38.50
29813;DHT22;16707;48.106;11.548;2023-06-01T16:00:18;24.80;38.70
29813;DHT22;16707;48.106;11.548;2023-06-01T16:02:50;24.80;39.60
29813;DHT22;16707;48.106;11.548;2023-06-01T16:05:18;24.80;40.30
29813;DHT22;16707;48.106;11.548;2023-06-01T16:07:48;24.80;40.40
29813;DHT22;16707;48.106;11.548;2023-06-01T16:10:18;24.80;40.10
29813;DHT22;16707;48.106;11.548;2023-06-01T16:12:46;24.70;40.60
29813;DHT22;16707;48.106;11.548;2023-06-01T16:15:13;24.70;41.80
29813;DHT22;16707;48.106;11.548;2023-06-01T16:17:41;24.90;40.30
29813;DHT22;16707;48.106;11.548;2023-06-01T16:20:15;24.80;41.20
29813;DHT22;16707;48.106;11.548;2023-06-01T16:22:42;24.80;40.20
29813;DHT22;16707;48.106;11.548;2023-06-01T16:25:09;24.80;41.50
29813;DHT22;16707;48.106;11.548;2023-06-01T16:27:42;24.80;40.80
29813;DHT22;16707;48.106;11.548;2023-06-01T16:30:11;24.70;40.20
29813;DHT22;16707;48.106;11.548;2023-06-01T16:32:43;24.80;43.20
29813;DHT22;16707;48.106;11.548;2023-06-01T16:35:10;24.90;41.10
29813;DHT22;16707;48.106;11.548;2023-06-01T16:37:40;24.70;39.80
29813;DHT22;16707;48.106;11.548;2023-06-01T16:40:19;24.70;40.40
29813;DHT22;16707;48.106;11.548;2023-06-01T16:42:46;24.70;40.60
29813;DHT22;16707;48.106;11.548;2023-06-01T16:45:20;24.80;40.60
29813;DHT22;16707;48.106;11.548;2023-06-01T16:47:50;24.80;41.60
29813;DHT22;16707;48.106;11.548;2023-06-01T16:50:17;24.70;42.00
29813;DHT22;16707;48.106;11.548;2023-06-01T16:52:44;24.70;43.00
29813;DHT22;16707;48.106;11.548;2023-06-01T16:55:11;24.60;43.30
29813;DHT22;16707;48.106;11.548;2023-06-01T16:57:42;24.60;44.60
29813;DHT22;16707;48.106;11.548;2023-06-01T17:00:12;24.50;45.00
29813;DHT22;16707;48.106;11.548;2023-06-01T17:02:43;24.40;44.20
29813;DHT22;16707;48.106;11.548;2023-06-01T17:05:10;24.40;45.00
29813;DHT22;16707;48.106;11.548;2023-06-01T17:07:37;24.40;44.30
29813;DHT22;16707;48.106;11.548;2023-06-01T17:10:17;24.30;44.60
29813;DHT22;16707;48.106;11.548;2023-06-01T17:12:44;24.10;44.60
29813;DHT22;16707;48.106;11.548;2023-06-01T17:15:21;24.10;44.50
29813;DHT22;16707;48.106;11.548;2023-06-01T17:17:56;24.00;45.30
29813;DHT22;16707;48.106;11.548;2023-06-01T17:20:26;24.00;46.60
29813;DHT22;16707;48.106;11.548;2023-06-01T17:22:59;24.00;45.90
29813;DHT22;16707;48.106;11.548;2023-06-01T17:25:26;23.80;47.20
29813;DHT22;16707;48.106;11.548;2023-06-01T17:27:53;23.80;46.30
29813;DHT22;16707;48.106;11.548;2023-06-01T17:30:20;23.80;46.20
29813;DHT22;16707;48.106;11.548;2023-06-01T17:32:48;23.70;45.90
29813;DHT22;16707;48.106;11.548;2023-06-01T17:35:16;23.60;45.90
29813;DHT22;16707;48.106;11.548;2023-06-01T17:37:49;23.50;46.10
29813;DHT22;16707;48.106;11.548;2023-06-01T17:40:16;23.30;45.40
29813;DHT22;16707;48.106;11.548;2023-06-01T17:42:44;23.30;44.70
29813;DHT22;16707;48.106;11.548;2023-06-01T17:45:16;23.10;45.00
29813;DHT22;16707;48.106;11.548;2023-06-01T17:47:44;23.00;45.20
29813;DHT22;16707;48.106;11.548;2023-06-01T17:50:13;22.90;45.10
29813;DHT22;16707;48.106;11.548;2023-06-01T17:52:51;22.90;44.90
29813;DHT22;16707;48.106;11.548;2023-06-01T17:55:25;22.90;44.80
29813;DHT22;16707;48.106;11.548;2023-06-01T17:57:55;22.70;45.40
29813;DHT22;16707;48.106;11.548;2023-06-01T18:00:23;22.70;45.40
29813;DHT22;16707;48.106;11.548;2023-06-01T18:02:50;22.70;45.00
29813;DHT22;16707;48.106;11.548;2023-06-01T18:05:21;22.50;45.30
29813;DHT22;16707;48.106;11.548;2023-06-01T18:07:49;22.50;45.80
29813;DHT22;16707;48.106;11.548;2023-06-01T18:10:16;22.40;45.70
29813;DHT22;16707;48.106;11.548;2023-06-01T18:12:44;22.30;46.10
29813;DHT22;16707;48.106;11.548;2023-06-01T18:15:11;22.30;46.50
29813;DHT22;16707;48.106;11.548;2023-06-01T18:17:38;22.20;46.50
29813;DHT22;16707;48.106;11.548;2023-06-01T18:20:06;22.00;47.20
29813;DHT22;16707;48.106;11.548;2023-06-01T18:22:35;21.80;47.60
29813;DHT22;16707;48.106;11.548;2023-06-01T18:25:02;21.70;48.50
29813;DHT22;16707;48.106;11.548;2023-06-01T18:27:30;21.70;48.50
29813;DHT22;16707;48.106;11.548;2023-06-01T18:29:57;21.60;49.10
29813;DHT22;16707;48.106;11.548;2023-06-01T18:32:28;21.40;49.30
29813;DHT22;16707;48.106;11.548;2023-06-01T18:35:01;21.20;50.30
29813;DHT22;16707;48.106;11.548;2023-06-01T18:37:30;21.20;50.30
29813;DHT22;16707;48.106;11.548;2023-06-01T18:40:02;21.20;51.10
29813;DHT22;16707;48.106;11.548;2023-06-01T18:42:29;21.10;50.60
29813;DHT22;16707;48.106;11.548;2023-06-01T18:44:58;20.80;51.20
29813;DHT22;16707;48.106;11.548;2023-06-01T18:47:25;20.70;51.40
29813;DHT22;16707;48.106;11.548;2023-06-01T18:49:53;20.50;52.10
29813;DHT22;16707;48.106;11.548;2023-06-01T18:52:20;20.30;53.80
29813;DHT22;16707;48.106;11.548;2023-06-01T18:54:48;20.10;55.40
29813;DHT22;16707;48.106;11.548;2023-06-01T18:57:16;19.90;56.70
29813;DHT22;16707;48.106;11.548;2023-06-01T18:59:44;19.70;58.00
29813;DHT22;16707;48.106;11.548;2023-06-01T19:02:12;19.50;59.30
29813;DHT22;16707;48.106;11.548;2023-06-01T19:04:39;19.40;62.40
29813;DHT22;16707;48.106;11.548;2023-06-01T19:07:20;19.30;63.90
29813;DHT22;16707;48.106;11.548;2023-06-01T19:09:57;19.10;64.90
29813;DHT22;16707;48.106;11.548;2023-06-01T19:12:31;19.10;60.90
29813;DHT22;16707;48.106;11.548;2023-06-01T19:14:58;19.30;59.70
29813;DHT22;16707;48.106;11.548;2023-06-01T19:17:25;19.20;66.70
29813;DHT22;16707;48.106;11.548;2023-06-01T19:19:58;18.90;68.70
29813;DHT22;16707;48.106;11.548;2023-06-01T19:22:28;18.70;70.60
29813;DHT22;16707;48.106;11.548;2023-06-01T19:24:57;18.60;72.80
29813;DHT22;16707;48.106;11.548;2023-06-01T19:27:24;18.40;74.90